sensor_id;sensor_type;location;lat;lon;timestamp;temperature;humidity
56234;DHT22;42141;53.240;6.580;2022-07-09T00:00:42;16.50;99.90
56234;DHT22;42141;53.240;6.580;2022-07-09T00:03:08;16.50;99.90
56234;DHT22;42141;53.240;6.580;2022-07-09T00:05:33;16.50;99.90
56234;DHT22;42141;53.240;6.580;2022-07-09T00:07:59;16.50;99.90
56234;DHT22;42141;53.240;6.580;2022-07-09T00:10:25;16.60;99.90
56234;DHT22;42141;53.240;6.580;2022-07-09T00:12:51;17.00;99.90
56234;DHT22;42141;53.240;6.580;2022-07-09T00:15:16;16.60;99.90
56234;DHT22;42141;53.240;6.580;2022-07-09T00:17:42;17.00;99.90
56234;DHT22;42141;53.240;6.580;2022-07-09T00:20:08;16.60;99.90
56234;DHT22;42141;53.240;6.580;2022-07-09T00:22:34;16.60;99.90
56234;DHT22;42141;53.240;6.580;2022-07-09T00:25:00;16.70;99.90
56234;DHT22;42141;53.240;6.580;2022-07-09T00:27:27;17.00;99.90
56234;DHT22;42141;53.240;6.580;2022-07-09T00:29:52;16.70;99.90
56234;DHT22;42141;53.240;6.580;2022-07-09T00:32:18;16.70;99.90
56234;DHT22;42141;53.240;6.580;2022-07-09T00:34:44;16.60;99.90
56234;DHT22;42141;53.240;6.580;2022-07-09T00:37:11;16.70;99.90
56234;DHT22;42141;53.240;6.580;2022-07-09T00:39:37;16.60;99.90
56234;DHT22;42141;53.240;6.580;2022-07-09T00:42:07;16.60;99.90
56234;DHT22;42141;53.240;6.580;2022-07-09T00:44:34;16.60;99.90
56234;DHT22;42141;53.240;6.580;2022-07-09T00:47:00;16.60;99.90
56234;DHT22;42141;53.240;6.580;2022-07-09T00:49:29;16.60;99.90
56234;DHT22;42141;53.240;6.580;2022-07-09T00:51:56;16.60;99.90
56234;DHT22;42141;53.240;6.580;2022-07-09T00:54:23;16.60;99.90
56234;DHT22;42141;53.240;6.580;2022-07-09T00:56:49;17.40;99.90
56234;DHT22;42141;53.240;6.580;2022-07-09T00:59:17;16.70;99.90
56234;DHT22;42141;53.240;6.580;2022-07-09T01:01:43;16.70;99.90
56234;DHT22;42141;53.240;6.580;2022-07-09T01:04:09;16.70;99.90
56234;DHT22;42141;53.240;6.580;2022-07-09T01:06:34;17.40;99.90
56234;DHT22;42141;53.240;6.580;2022-07-09T01:09:03;16.70;99.90
56234;DHT22;42141;53.240;6.580;2022-07-09T01:11:30;16.70;99.90
56234;DHT22;42141;53.240;6.580;2022-07-09T01:13:56;16.70;99.90
56234;DHT22;42141;53.240;6.580;2022-07-09T01:16:31;16.60;99.90
56234;DHT22;42141;53.240;6.580;2022-07-09T01:19:00;16.70;99.90
56234;DHT22;42141;53.240;6.580;2022-07-09T01:21:26;16.70;99.90
56234;DHT22;42141;53.240;6.580;2022-07-09T01:23:52;16.60;99.90
56234;DHT22;42141;53.240;6.580;2022-07-09T01:26:18;16.60;99.90
56234;DHT22;42141;53.240;6.580;2022-07-09T01:28:47;16.60;99.90
56234;DHT22;42141;53.240;6.580;2022-07-09T01:31:13;16.60;99.90
56234;DHT22;42141;53.240;6.580;2022-07-09T01:33:40;16.60;99.90
56234;DHT22;42141;53.240;6.580;2022-07-09T01:36:08;16.60;99.90
56234;DHT22;42141;53.240;6.580;2022-07-09T01:38:35;16.60;99.90
56234;DHT22;42141;53.240;6.580;2022-07-09T01:41:01;16.60;99.90
56234;DHT22;42141;53.240;6.580;2022-07-09T01:43:27;16.60;99.90
56234;DHT22;42141;53.240;6.580;2022-07-09T01:45:52;16.80;99.90
56234;DHT22;42141;53.240;6.580;2022-07-09T01:48:18;16.60;99.90
56234;DHT22;42141;53.240;6.580;2022-07-09T01:50:44;16.60;99.90
56234;DHT22;42141;53.240;6.580;2022-07-09T01:53:10;17.50;99.90
56234;DHT22;42141;53.240;6.580;2022-07-09T01:55:36;16.60;99.90
56234;DHT22;42141;53.240;6.580;2022-07-09T01:58:02;16.60;99.90
56234;DHT22;42141;53.240;6.580;2022-07-09T02:00:28;16.70;99.90
56234;DHT22;42141;53.240;6.580;2022-07-09T02:02:55;16.50;99.90
56234;DHT22;42141;53.240;6.580;2022-07-09T02:05:21;16.50;99.90
56234;DHT22;42141;53.240;6.580;2022-07-09T02:07:47;16.50;99.90
56234;DHT22;42141;53.240;6.580;2022-07-09T02:10:12;16.40;99.90
56234;DHT22;42141;53.240;6.580;2022-07-09T02:12:39;16.50;99.90
56234;DHT22;42141;53.240;6.580;2022-07-09T02:15:05;16.50;99.90
56234;DHT22;42141;53.240;6.580;2022-07-09T02:17:32;16.40;99.90
56234;DHT22;42141;53.240;6.580;2022-07-09T02:19:58;16.40;99.90
56234;DHT22;42141;53.240;6.580;2022-07-09T02:22:24;16.50;99.90
56234;DHT22;42141;53.240;6.580;2022-07-09T02:24:49;16.40;99.90
56234;DHT22;42141;53.240;6.580;2022-07-09T02:27:15;16.40;99.90
56234;DHT22;42141;53.240;6.580;2022-07-09T02:29:41;16.40;99.90
56234;DHT22;42141;53.240;6.580;2022-07-09T02:32:10;16.40;99.90
56234;DHT22;42141;53.240;6.580;2022-07-09T02:34:36;17.00;99.90
56234;DHT22;42141;53.240;6.580;2022-07-09T02:37:03;16.40;99.90
56234;DHT22;42141;53.240;6.580;2022-07-09T02:39:29;16.40;99.90
56234;DHT22;42141;53.240;6.580;2022-07-09T02:41:55;16.40;99.90
56234;DHT22;42141;53.240;6.580;2022-07-09T02:44:20;16.90;99.90
56234;DHT22;42141;53.240;6.580;2022-07-09T02:46:46;16.40;99.90
56234;DHT22;42141;53.240;6.580;2022-07-09T02:49:12;16.40;99.90
56234;DHT22;42141;53.240;6.580;2022-07-09T02:51:37;16.40;99.90
56234;DHT22;42141;53.240;6.580;2022-07-09T02:54:03;16.40;99.90
56234;DHT22;42141;53.240;6.580;2022-07-09T02:56:30;16.40;99.90
56234;DHT22;42141;53.240;6.580;2022-07-09T02:58:55;16.40;99.90
56234;DHT22;42141;53.240;6.580;2022-07-09T03:01:21;16.40;99.90
56234;DHT22;42141;53.240;6.580;2022-07-09T03:03:47;16.40;99.90
56234;DHT22;42141;53.240;6.580;2022-07-09T03:06:12;16.30;99.90
56234;DHT22;42141;53.240;6.580;2022-07-09T03:08:39;16.30;99.90
56234;DHT22;42141;53.240;6.580;2022-07-09T03:11:05;16.30;99.90
56234;DHT22;42141;53.240;6.580;2022-07-09T03:13:33;16.30;99.90
56234;DHT22;42141;53.240;6.580;2022-07-09T03:15:58;16.40;99.90
56234;DHT22;42141;53.240;6.580;2022-07-09T03:18:24;16.30;99.90
56234;DHT22;42141;53.240;6.580;2022-07-09T03:20:50;16.30;99.90
56234;DHT22;42141;53.240;6.580;2022-07-09T03:23:16;16.20;99.90
56234;DHT22;42141;53.240;6.580;2022-07-09T03:25:42;16.40;99.90
56234;DHT22;42141;53.240;6.580;2022-07-09T03:28:09;16.20;99.90
56234;DHT22;42141;53.240;6.580;2022-07-09T03:30:34;16.20;99.90
56234;DHT22;42141;53.240;6.580;2022-07-09T03:33:00;16.20;99.90
56234;DHT22;42141;53.240;6.580;2022-07-09T03:35:26;16.20;99.90
56234;DHT22;42141;53.240;6.580;2022-07-09T03:37:51;16.20;99.90
56234;DHT22;42141;53.240;6.580;2022-07-09T03:40:17;16.30;99.90
56234;DHT22;42141;53.240;6.580;2022-07-09T03:42:43;16.20;99.90
56234;DHT22;42141;53.240;6.580;2022-07-09T03:45:09;16.20;99.90
56234;DHT22;42141;53.240;6.580;2022-07-09T03:47:35;16.20;99.90
56234;DHT22;42141;53.240;6.580;2022-07-09T03:50:00;16.20;99.90
56234;DHT22;42141;53.240;6.580;2022-07-09T03:52:26;16.10;99.90
56234;DHT22;42141;53.240;6.580;2022-07-09T03:54:52;16.10;99.90
56234;DHT22;42141;53.240;6.580;2022-07-09T03:57:18;16.20;99.90
56234;DHT22;42141;53.240;6.580;2022-07-09T03:59:43;16.20;99.90
56234;DHT22;42141;53.240;6.580;2022-07-09T04:02:09;16.20;99.90
56234;DHT22;42141;53.240;6.580;2022-07-09T04:04:34;16.90;99.90
56234;DHT22;42141;53.240;6.580;2022-07-09T04:07:00;16.20;99.90
56234;DHT22;42141;53.240;6.580;2022-07-09T04:09:26;16.20;99.90
56234;DHT22;42141;53.240;6.580;2022-07-09T04:11:51;16.20;99.90
56234;DHT22;42141;53.240;6.580;2022-07-09T04:14:17;16.20;99.90
56234;DHT22;42141;53.240;6.580;2022-07-09T04:16:45;16.30;99.90
56234;DHT22;42141;53.240;6.580;2022-07-09T04:19:12;16.30;99.90
56234;DHT22;42141;53.240;6.580;2022-07-09T04:21:37;16.30;99.90
56234;DHT22;42141;53.240;6.580;2022-07-09T04:24:03;16.30;99.90
56234;DHT22;42141;53.240;6.580;2022-07-09T04:26:29;16.40;99.90
56234;DHT22;42141;53.240;6.580;2022-07-09T04:28:55;16.60;99.90
56234;DHT22;42141;53.240;6.580;2022-07-09T04:31:20;16.40;99.90
56234;DHT22;42141;53.240;6.580;2022-07-09T04:33:47;16.50;99.90
56234;DHT22;42141;53.240;6.580;2022-07-09T04:36:13;16.70;99.90
56234;DHT22;42141;53.240;6.580;2022-07-09T04:38:38;16.60;99.90
56234;DHT22;42141;53.240;6.580;2022-07-09T04:41:05;16.50;99.90
56234;DHT22;42141;53.240;6.580;2022-07-09T04:43:31;16.40;99.90
56234;DHT22;42141;53.240;6.580;2022-07-09T04:45:57;16.60;99.90
56234;DHT22;42141;53.240;6.580;2022-07-09T04:48:22;16.60;99.90
56234;DHT22;42141;53.240;6.580;2022-07-09T04:50:48;17.50;99.90
56234;DHT22;42141;53.240;6.580;2022-07-09T04:53:14;16.60;99.90
56234;DHT22;42141;53.240;6.580;2022-07-09T04:55:40;16.60;99.90
56234;DHT22;42141;53.240;6.580;2022-07-09T04:58:06;16.60;99.90
56234;DHT22;42141;53.240;6.580;2022-07-09T05:00:31;16.70;99.90
56234;DHT22;42141;53.240;6.580;2022-07-09T05:02:58;16.80;99.90
56234;DHT22;42141;53.240;6.580;2022-07-09T05:05:24;16.90;99.90
56234;DHT22;42141;53.240;6.580;2022-07-09T05:07:51;16.30;99.90
56234;DHT22;42141;53.240;6.580;2022-07-09T05:10:17;16.90;99.90
56234;DHT22;42141;53.240;6.580;2022-07-09T05:12:43;16.90;99.90
56234;DHT22;42141;53.240;6.580;2022-07-09T05:15:10;16.90;99.90
56234;DHT22;42141;53.240;6.580;2022-07-09T05:17:36;16.90;99.90
56234;DHT22;42141;53.240;6.580;2022-07-09T05:20:03;16.90;99.90
56234;DHT22;42141;53.240;6.580;2022-07-09T05:22:34;17.00;99.90
56234;DHT22;42141;53.240;6.580;2022-07-09T05:25:00;17.00;99.90
56234;DHT22;42141;53.240;6.580;2022-07-09T05:27:26;17.80;99.90
56234;DHT22;42141;53.240;6.580;2022-07-09T05:29:53;17.00;99.90
56234;DHT22;42141;53.240;6.580;2022-07-09T05:32:19;17.10;99.90
56234;DHT22;42141;53.240;6.580;2022-07-09T05:34:45;17.10;99.90
56234;DHT22;42141;53.240;6.580;2022-07-09T05:37:10;17.20;99.90
56234;DHT22;42141;53.240;6.580;2022-07-09T05:39:36;17.20;99.90
56234;DHT22;42141;53.240;6.580;2022-07-09T05:42:02;17.30;99.90
56234;DHT22;42141;53.240;6.580;2022-07-09T05:44:28;17.30;99.90
56234;DHT22;42141;53.240;6.580;2022-07-09T05:46:54;17.30;99.90
56234;DHT22;42141;53.240;6.580;2022-07-09T05:49:19;17.10;99.90
56234;DHT22;42141;53.240;6.580;2022-07-09T05:51:45;17.40;99.90
56234;DHT22;42141;53.240;6.580;2022-07-09T05:54:11;17.40;99.90
56234;DHT22;42141;53.240;6.580;2022-07-09T05:56:36;17.40;99.90
56234;DHT22;42141;53.240;6.580;2022-07-09T05:59:03;17.40;99.90
56234;DHT22;42141;53.240;6.580;2022-07-09T06:01:29;17.40;99.90
56234;DHT22;42141;53.240;6.580;2022-07-09T06:03:55;17.40;99.90
56234;DHT22;42141;53.240;6.580;2022-07-09T06:06:21;17.40;99.90
56234;DHT22;42141;53.240;6.580;2022-07-09T06:08:46;17.50;99.90
56234;DHT22;42141;53.240;6.580;2022-07-09T06:11:12;17.50;99.90
56234;DHT22;42141;53.240;6.580;2022-07-09T06:13:38;17.60;99.90
56234;DHT22;42141;53.240;6.580;2022-07-09T06:16:04;17.60;99.90
56234;DHT22;42141;53.240;6.580;2022-07-09T06:18:29;17.70;99.90
56234;DHT22;42141;53.240;6.580;2022-07-09T06:20:55;17.70;99.90
56234;DHT22;42141;53.240;6.580;2022-07-09T06:23:21;17.70;99.90
56234;DHT22;42141;53.240;6.580;2022-07-09T06:25:47;17.80;99.90
56234;DHT22;42141;53.240;6.580;2022-07-09T06:28:13;17.90;99.90
56234;DHT22;42141;53.240;6.580;2022-07-09T06:30:39;17.90;99.90
56234;DHT22;42141;53.240;6.580;2022-07-09T06:33:05;17.90;99.90
56234;DHT22;42141;53.240;6.580;2022-07-09T06:35:31;18.00;99.90
56234;DHT22;42141;53.240;6.580;2022-07-09T06:37:57;18.00;99.90
56234;DHT22;42141;53.240;6.580;2022-07-09T06:40:23;18.00;99.90
56234;DHT22;42141;53.240;6.580;2022-07-09T06:42:48;18.00;99.90
56234;DHT22;42141;53.240;6.580;2022-07-09T06:45:14;18.00;99.90
56234;DHT22;42141;53.240;6.580;2022-07-09T06:47:40;18.00;99.90
56234;DHT22;42141;53.240;6.580;2022-07-09T06:50:06;18.20;99.90
56234;DHT22;42141;53.240;6.580;2022-07-09T06:52:32;17.90;99.90
56234;DHT22;42141;53.240;6.580;2022-07-09T06:54:57;18.00;99.90
56234;DHT22;42141;53.240;6.580;2022-07-09T06:57:23;18.00;99.90
56234;DHT22;42141;53.240;6.580;2022-07-09T06:59:49;18.00;99.90
56234;DHT22;42141;53.240;6.580;2022-07-09T07:02:15;18.10;99.90
56234;DHT22;42141;53.240;6.580;2022-07-09T07:04:44;18.20;99.90
56234;DHT22;42141;53.240;6.580;2022-07-09T07:07:10;18.30;99.90
56234;DHT22;42141;53.240;6.580;2022-07-09T07:09:35;18.30;99.90
56234;DHT22;42141;53.240;6.580;2022-07-09T07:12:01;18.40;99.90
56234;DHT22;42141;53.240;6.580;2022-07-09T07:14:27;18.40;99.90
56234;DHT22;42141;53.240;6.580;2022-07-09T07:16:53;18.50;99.90
56234;DHT22;42141;53.240;6.580;2022-07-09T07:19:19;18.60;99.90
56234;DHT22;42141;53.240;6.580;2022-07-09T07:21:48;18.70;99.90
56234;DHT22;42141;53.240;6.580;2022-07-09T07:24:14;18.90;99.90
56234;DHT22;42141;53.240;6.580;2022-07-09T07:26:40;18.90;99.90
56234;DHT22;42141;53.240;6.580;2022-07-09T07:29:06;18.90;99.90
56234;DHT22;42141;53.240;6.580;2022-07-09T07:31:32;19.00;99.90
56234;DHT22;42141;53.240;6.580;2022-07-09T07:33:58;19.00;99.90
56234;DHT22;42141;53.240;6.580;2022-07-09T07:36:25;19.00;99.90
56234;DHT22;42141;53.240;6.580;2022-07-09T07:38:51;19.00;99.90
56234;DHT22;42141;53.240;6.580;2022-07-09T07:41:17;19.10;99.90
56234;DHT22;42141;53.240;6.580;2022-07-09T07:43:44;19.20;99.90
56234;DHT22;42141;53.240;6.580;2022-07-09T07:46:10;19.20;99.90
56234;DHT22;42141;53.240;6.580;2022-07-09T07:48:36;19.40;99.90
56234;DHT22;42141;53.240;6.580;2022-07-09T07:51:03;19.50;99.90
56234;DHT22;42141;53.240;6.580;2022-07-09T07:53:32;19.60;99.90
56234;DHT22;42141;53.240;6.580;2022-07-09T07:56:00;19.60;99.90
56234;DHT22;42141;53.240;6.580;2022-07-09T07:58:26;19.60;99.90
56234;DHT22;42141;53.240;6.580;2022-07-09T08:00:52;19.60;99.90
56234;DHT22;42141;53.240;6.580;2022-07-09T08:03:17;19.70;99.90
56234;DHT22;42141;53.240;6.580;2022-07-09T08:05:43;19.90;99.90
56234;DHT22;42141;53.240;6.580;2022-07-09T08:08:09;19.90;99.90
56234;DHT22;42141;53.240;6.580;2022-07-09T08:10:35;20.00;99.90
56234;DHT22;42141;53.240;6.580;2022-07-09T08:13:01;19.90;99.90
56234;DHT22;42141;53.240;6.580;2022-07-09T08:15:26;19.80;99.90
56234;DHT22;42141;53.240;6.580;2022-07-09T08:17:55;19.90;99.90
56234;DHT22;42141;53.240;6.580;2022-07-09T08:20:20;20.00;99.90
56234;DHT22;42141;53.240;6.580;2022-07-09T08:22:46;20.10;99.90
56234;DHT22;42141;53.240;6.580;2022-07-09T08:25:12;20.20;99.90
56234;DHT22;42141;53.240;6.580;2022-07-09T08:27:39;20.60;99.90
56234;DHT22;42141;53.240;6.580;2022-07-09T08:30:05;20.40;99.90
56234;DHT22;42141;53.240;6.580;2022-07-09T08:32:31;20.50;99.90
56234;DHT22;42141;53.240;6.580;2022-07-09T08:34:57;20.40;99.90
56234;DHT22;42141;53.240;6.580;2022-07-09T08:37:23;20.40;99.90
56234;DHT22;42141;53.240;6.580;2022-07-09T08:39:48;20.40;99.90
56234;DHT22;42141;53.240;6.580;2022-07-09T08:42:15;20.30;99.90
56234;DHT22;42141;53.240;6.580;2022-07-09T08:44:43;20.20;99.90
56234;DHT22;42141;53.240;6.580;2022-07-09T08:47:11;20.10;99.90
56234;DHT22;42141;53.240;6.580;2022-07-09T08:49:37;20.10;99.90
56234;DHT22;42141;53.240;6.580;2022-07-09T08:52:05;20.30;99.90
56234;DHT22;42141;53.240;6.580;2022-07-09T08:54:31;20.60;99.90
56234;DHT22;42141;53.240;6.580;2022-07-09T08:56:59;20.90;99.90
56234;DHT22;42141;53.240;6.580;2022-07-09T08:59:24;21.20;99.90
56234;DHT22;42141;53.240;6.580;2022-07-09T09:01:50;20.70;99.90
56234;DHT22;42141;53.240;6.580;2022-07-09T09:04:17;20.50;99.90
56234;DHT22;42141;53.240;6.580;2022-07-09T09:06:43;20.30;99.90
56234;DHT22;42141;53.240;6.580;2022-07-09T09:09:09;20.20;99.90
56234;DHT22;42141;53.240;6.580;2022-07-09T09:11:36;20.30;99.90
56234;DHT22;42141;53.240;6.580;2022-07-09T09:14:03;20.50;99.90
56234;DHT22;42141;53.240;6.580;2022-07-09T09:16:29;21.30;99.90
56234;DHT22;42141;53.240;6.580;2022-07-09T09:18:55;20.60;99.90
56234;DHT22;42141;53.240;6.580;2022-07-09T09:21:25;20.70;99.90
56234;DHT22;42141;53.240;6.580;2022-07-09T09:23:55;20.70;99.90
56234;DHT22;42141;53.240;6.580;2022-07-09T09:26:24;20.80;99.90
56234;DHT22;42141;53.240;6.580;2022-07-09T09:28:58;21.00;99.90
56234;DHT22;42141;53.240;6.580;2022-07-09T09:31:30;21.00;99.90
56234;DHT22;42141;53.240;6.580;2022-07-09T09:36:35;21.20;99.90
56234;DHT22;42141;53.240;6.580;2022-07-09T09:41:42;21.30;99.90
56234;DHT22;42141;53.240;6.580;2022-07-09T09:44:11;21.40;99.90
56234;DHT22;42141;53.240;6.580;2022-07-09T09:46:38;21.40;99.90
56234;DHT22;42141;53.240;6.580;2022-07-09T09:49:05;21.40;99.90
56234;DHT22;42141;53.240;6.580;2022-07-09T09:51:35;21.40;99.90
56234;DHT22;42141;53.240;6.580;2022-07-09T09:54:03;21.60;99.90
56234;DHT22;42141;53.240;6.580;2022-07-09T09:56:30;21.70;99.90
56234;DHT22;42141;53.240;6.580;2022-07-09T09:58:57;22.30;99.90
56234;DHT22;42141;53.240;6.580;2022-07-09T10:01:25;21.90;99.90
56234;DHT22;42141;53.240;6.580;2022-07-09T10:03:51;21.90;99.90
56234;DHT22;42141;53.240;6.580;2022-07-09T10:06:16;21.80;99.90
56234;DHT22;42141;53.240;6.580;2022-07-09T10:08:42;21.80;99.90
56234;DHT22;42141;53.240;6.580;2022-07-09T10:11:08;21.70;99.90
56234;DHT22;42141;53.240;6.580;2022-07-09T10:13:37;21.60;99.90
56234;DHT22;42141;53.240;6.580;2022-07-09T10:16:03;21.40;99.90
56234;DHT22;42141;53.240;6.580;2022-07-09T10:18:29;21.00;99.90
56234;DHT22;42141;53.240;6.580;2022-07-09T10:20:56;20.60;99.90
56234;DHT22;42141;53.240;6.580;2022-07-09T10:23:23;20.30;99.90
56234;DHT22;42141;53.240;6.580;2022-07-09T10:25:50;20.00;99.90
56234;DHT22;42141;53.240;6.580;2022-07-09T10:28:19;19.80;99.90
56234;DHT22;42141;53.240;6.580;2022-07-09T10:30:45;19.80;99.90
56234;DHT22;42141;53.240;6.580;2022-07-09T10:38:07;19.50;99.90
56234;DHT22;42141;53.240;6.580;2022-07-09T10:40:41;19.70;99.90
56234;DHT22;42141;53.240;6.580;2022-07-09T10:43:08;19.50;99.90
56234;DHT22;42141;53.240;6.580;2022-07-09T10:48:01;19.60;99.90
56234;DHT22;42141;53.240;6.580;2022-07-09T10:50:28;19.60;99.90
56234;DHT22;42141;53.240;6.580;2022-07-09T10:52:55;19.80;99.90
56234;DHT22;42141;53.240;6.580;2022-07-09T10:55:25;19.80;99.90
56234;DHT22;42141;53.240;6.580;2022-07-09T10:57:52;19.90;99.90
56234;DHT22;42141;53.240;6.580;2022-07-09T11:00:19;19.90;99.90
56234;DHT22;42141;53.240;6.580;2022-07-09T11:05:20;20.10;99.90
56234;DHT22;42141;53.240;6.580;2022-07-09T11:08:04;20.20;99.90
56234;DHT22;42141;53.240;6.580;2022-07-09T11:10:32;20.30;99.90
56234;DHT22;42141;53.240;6.580;2022-07-09T11:12:59;20.50;99.90
56234;DHT22;42141;53.240;6.580;2022-07-09T11:15:29;20.70;99.90
56234;DHT22;42141;53.240;6.580;2022-07-09T11:18:09;20.90;99.90
56234;DHT22;42141;53.240;6.580;2022-07-09T11:20:40;21.00;99.90
56234;DHT22;42141;53.240;6.580;2022-07-09T11:23:09;21.00;99.90
56234;DHT22;42141;53.240;6.580;2022-07-09T11:25:35;20.90;99.90
56234;DHT22;42141;53.240;6.580;2022-07-09T11:28:01;20.80;99.90
56234;DHT22;42141;53.240;6.580;2022-07-09T11:30:29;20.90;99.90
56234;DHT22;42141;53.240;6.580;2022-07-09T11:32:56;20.90;99.90
56234;DHT22;42141;53.240;6.580;2022-07-09T11:35:29;20.90;99.90
56234;DHT22;42141;53.240;6.580;2022-07-09T11:38:00;20.90;99.90
56234;DHT22;42141;53.240;6.580;2022-07-09T11:40:26;20.90;99.90
56234;DHT22;42141;53.240;6.580;2022-07-09T11:42:53;21.10;99.90
56234;DHT22;42141;53.240;6.580;2022-07-09T11:45:23;21.40;99.90
56234;DHT22;42141;53.240;6.580;2022-07-09T11:47:50;21.60;99.90
56234;DHT22;42141;53.240;6.580;2022-07-09T11:50:17;21.70;99.90
56234;DHT22;42141;53.240;6.580;2022-07-09T11:52:48;21.80;99.90
56234;DHT22;42141;53.240;6.580;2022-07-09T11:55:16;21.80;99.90
56234;DHT22;42141;53.240;6.580;2022-07-09T11:57:51;21.80;99.90
56234;DHT22;42141;53.240;6.580;2022-07-09T12:02:48;21.90;99.90
56234;DHT22;42141;53.240;6.580;2022-07-09T12:07:52;21.60;99.90
56234;DHT22;42141;53.240;6.580;2022-07-09T12:10:28;21.50;99.90
56234;DHT22;42141;53.240;6.580;2022-07-09T12:12:56;21.60;99.90
56234;DHT22;42141;53.240;6.580;2022-07-09T12:15:21;21.90;99.90
56234;DHT22;42141;53.240;6.580;2022-07-09T12:17:58;22.00;99.90
56234;DHT22;42141;53.240;6.580;2022-07-09T12:20:29;22.10;99.90
56234;DHT22;42141;53.240;6.580;2022-07-09T12:22:56;22.20;99.90
56234;DHT22;42141;53.240;6.580;2022-07-09T12:25:22;22.20;99.90
56234;DHT22;42141;53.240;6.580;2022-07-09T12:27:48;22.20;99.90
56234;DHT22;42141;53.240;6.580;2022-07-09T12:30:17;22.40;99.90
56234;DHT22;42141;53.240;6.580;2022-07-09T12:32:44;22.40;99.90
56234;DHT22;42141;53.240;6.580;2022-07-09T12:35:11;22.30;99.90
56234;DHT22;42141;53.240;6.580;2022-07-09T12:37:37;22.20;99.90
56234;DHT22;42141;53.240;6.580;2022-07-09T12:40:05;22.00;99.90
56234;DHT22;42141;53.240;6.580;2022-07-09T12:42:30;22.00;99.90
56234;DHT22;42141;53.240;6.580;2022-07-09T12:44:56;21.90;99.90
56234;DHT22;42141;53.240;6.580;2022-07-09T12:47:22;21.90;99.90
56234;DHT22;42141;53.240;6.580;2022-07-09T12:49:48;22.00;99.90
56234;DHT22;42141;53.240;6.580;2022-07-09T12:52:14;22.10;99.90
56234;DHT22;42141;53.240;6.580;2022-07-09T12:54:39;22.20;99.90
56234;DHT22;42141;53.240;6.580;2022-07-09T12:57:05;22.00;99.90
56234;DHT22;42141;53.240;6.580;2022-07-09T12:59:31;22.00;99.90
56234;DHT22;42141;53.240;6.580;2022-07-09T13:01:57;21.90;99.90
56234;DHT22;42141;53.240;6.580;2022-07-09T13:04:22;21.90;99.90
56234;DHT22;42141;53.240;6.580;2022-07-09T13:06:48;21.80;99.90
56234;DHT22;42141;53.240;6.580;2022-07-09T13:09:14;21.70;99.90
56234;DHT22;42141;53.240;6.580;2022-07-09T13:11:40;21.60;99.90
56234;DHT22;42141;53.240;6.580;2022-07-09T13:14:06;21.50;99.90
56234;DHT22;42141;53.240;6.580;2022-07-09T13:16:32;21.50;99.90
56234;DHT22;42141;53.240;6.580;2022-07-09T13:19:00;21.60;99.90
56234;DHT22;42141;53.240;6.580;2022-07-09T13:21:25;21.60;99.90
56234;DHT22;42141;53.240;6.580;2022-07-09T13:23:51;21.60;99.90
56234;DHT22;42141;53.240;6.580;2022-07-09T13:26:17;21.60;99.90
56234;DHT22;42141;53.240;6.580;2022-07-09T13:28:43;21.70;99.90
56234;DHT22;42141;53.240;6.580;2022-07-09T13:31:09;21.80;99.90
56234;DHT22;42141;53.240;6.580;2022-07-09T13:33:35;21.80;99.90
56234;DHT22;42141;53.240;6.580;2022-07-09T13:36:03;22.10;99.90
56234;DHT22;42141;53.240;6.580;2022-07-09T13:38:29;22.00;99.90
56234;DHT22;42141;53.240;6.580;2022-07-09T13:40:55;22.00;99.90
56234;DHT22;42141;53.240;6.580;2022-07-09T13:43:21;22.00;99.90
56234;DHT22;42141;53.240;6.580;2022-07-09T13:45:49;22.10;99.90
56234;DHT22;42141;53.240;6.580;2022-07-09T13:48:15;22.10;99.60
56234;DHT22;42141;53.240;6.580;2022-07-09T13:50:40;22.00;99.60
56234;DHT22;42141;53.240;6.580;2022-07-09T13:53:06;21.80;99.80
56234;DHT22;42141;53.240;6.580;2022-07-09T13:55:32;21.60;99.90
56234;DHT22;42141;53.240;6.580;2022-07-09T13:57:57;21.40;99.90
56234;DHT22;42141;53.240;6.580;2022-07-09T14:00:23;21.10;99.90
56234;DHT22;42141;53.240;6.580;2022-07-09T14:02:50;20.90;99.90
56234;DHT22;42141;53.240;6.580;2022-07-09T14:05:16;20.70;99.90
56234;DHT22;42141;53.240;6.580;2022-07-09T14:07:42;20.40;99.90
56234;DHT22;42141;53.240;6.580;2022-07-09T14:10:07;20.20;99.90
56234;DHT22;42141;53.240;6.580;2022-07-09T14:12:33;20.00;99.90
56234;DHT22;42141;53.240;6.580;2022-07-09T14:14:59;19.90;99.90
56234;DHT22;42141;53.240;6.580;2022-07-09T14:17:28;19.80;99.90
56234;DHT22;42141;53.240;6.580;2022-07-09T14:19:53;19.90;99.90
56234;DHT22;42141;53.240;6.580;2022-07-09T14:22:19;20.00;99.90
56234;DHT22;42141;53.240;6.580;2022-07-09T14:24:45;20.40;99.90
56234;DHT22;42141;53.240;6.580;2022-07-09T14:27:11;20.10;99.90
56234;DHT22;42141;53.240;6.580;2022-07-09T14:29:37;20.10;99.90
56234;DHT22;42141;53.240;6.580;2022-07-09T14:32:04;20.10;99.90
56234;DHT22;42141;53.240;6.580;2022-07-09T14:34:30;20.10;99.90
56234;DHT22;42141;53.240;6.580;2022-07-09T14:36:56;20.00;99.90
56234;DHT22;42141;53.240;6.580;2022-07-09T14:39:21;19.90;99.90
56234;DHT22;42141;53.240;6.580;2022-07-09T14:41:47;19.80;99.90
56234;DHT22;42141;53.240;6.580;2022-07-09T14:44:13;19.80;99.90
56234;DHT22;42141;53.240;6.580;2022-07-09T14:46:40;19.80;99.90
56234;DHT22;42141;53.240;6.580;2022-07-09T14:49:06;19.90;99.90
56234;DHT22;42141;53.240;6.580;2022-07-09T14:51:31;20.00;99.90
56234;DHT22;42141;53.240;6.580;2022-07-09T14:53:59;20.10;99.90
56234;DHT22;42141;53.240;6.580;2022-07-09T14:56:25;20.00;99.90
56234;DHT22;42141;53.240;6.580;2022-07-09T14:58:50;19.90;99.90
56234;DHT22;42141;53.240;6.580;2022-07-09T15:01:16;19.90;99.90
56234;DHT22;42141;53.240;6.580;2022-07-09T15:03:42;19.90;99.90
56234;DHT22;42141;53.240;6.580;2022-07-09T15:06:08;19.90;99.90
56234;DHT22;42141;53.240;6.580;2022-07-09T15:08:34;19.80;99.90
56234;DHT22;42141;53.240;6.580;2022-07-09T15:11:00;19.70;99.90
56234;DHT22;42141;53.240;6.580;2022-07-09T15:13:27;19.60;99.90
56234;DHT22;42141;53.240;6.580;2022-07-09T15:15:53;19.60;99.90
56234;DHT22;42141;53.240;6.580;2022-07-09T15:18:19;19.60;99.90
56234;DHT22;42141;53.240;6.580;2022-07-09T15:20:45;19.60;99.90
56234;DHT22;42141;53.240;6.580;2022-07-09T15:23:10;19.60;99.90
56234;DHT22;42141;53.240;6.580;2022-07-09T15:25:36;19.60;99.90
56234;DHT22;42141;53.240;6.580;2022-07-09T15:28:02;19.60;99.90
56234;DHT22;42141;53.240;6.580;2022-07-09T15:30:28;19.50;99.90
56234;DHT22;42141;53.240;6.580;2022-07-09T15:32:54;19.40;99.90
56234;DHT22;42141;53.240;6.580;2022-07-09T15:35:19;19.40;99.90
56234;DHT22;42141;53.240;6.580;2022-07-09T15:37:45;19.50;99.90
56234;DHT22;42141;53.240;6.580;2022-07-09T15:40:12;19.50;99.90
56234;DHT22;42141;53.240;6.580;2022-07-09T15:42:42;19.60;99.90
56234;DHT22;42141;53.240;6.580;2022-07-09T15:45:12;19.60;99.90